Latest Coastal Weather Observations for Mallacoota

IDV60701

Issued at 8:55 am EDT Friday 28 November 2014 (issued every 10 minutes, with the page automatically refreshed every 10 minutes)

About coastal observations | Map of coastal stations | Coastal observations for VIC | Marine services | Other Formats
Station Details ID: 084084 Name: MALLACOOTA Lat: -37.60 Lon: 149.73 Height: 22.0 m
Data from the previous 72 hours. | See also: Recent months at Mallacoota
Date/Time
EDT
Temp

°C
Wind Pressure Rain
since 9am
mm
Weather Cloud Vis
km
Sea
Height
m
Swell
Dir
 
Speed
knots
Gust
knots
hPa Trend Height
m
Period
s
Dir
28/08:30am 15.9 E 5 6 1023.6 - 0.0 - - - - - - -
28/08:00am 14.6 NW 4 5 1023.5 - 0.0 - - - - - - -
28/07:30am 13.1 NW 5 6 1023.3 - 0.0 - - - - - - -
28/07:00am 11.2 NW 5 7 1023.2 - 0.0 - - - - - - -
28/06:30am 10.1 SE 1 5 1023.1 - 0.0 - - - - - - -
28/06:00am 9.4 NW 6 8 1022.8 - 0.0 - - - - - - -
28/05:30am 9.2 WNW 7 9 1022.7 - 0.0 - - - - - - -
28/05:00am 9.5 NW 8 10 1022.6 - 0.0 - - - - - - -
28/04:30am 9.3 NW 8 10 1022.3 - 0.0 - - - - - - -
28/04:00am 9.7 NW 8 10 1022.5 - 0.0 - - - - - - -
28/03:30am 9.5 NW 7 9 1022.7 - 0.0 - - - - - - -
28/03:00am 9.5 WNW 8 10 1022.9 - 0.0 - - - - - - -
28/02:30am 9.6 WNW 7 9 1023.1 - 0.0 - - - - - - -
28/02:00am 9.8 WNW 7 8 1023.4 - 0.0 - - - - - - -
28/01:30am 10.2 WNW 6 9 1023.7 - 0.0 - - - - - - -
28/01:00am 10.3 WNW 7 9 1024.0 - 0.0 - - - - - - -
28/12:30am 10.4 WNW 6 7 1024.2 - 0.0 - - - - - - -
28/12:00am 10.7 NW 6 8 1024.5 - 0.0 - - - - - - -
 
Date/Time
EDT
Temp

°C
Wind Pressure Rain
since 9am
mm
Weather Cloud Vis
km
Sea
Height
m
Swell
Dir
 
Speed
knots
Gust
knots
hPa Trend Height
m
Period
s
Dir
27/11:30pm 11.2 WNW 6 8 1024.7 - 0.0 - - - - - - -
27/11:00pm 11.4 WNW 6 8 1024.8 - 0.0 - - - - - - -
27/10:30pm 11.5 WNW 5 7 1025.0 - 0.0 - - - - - - -
27/10:00pm 11.7 WNW 5 7 1025.0 - 0.0 - - - - - - -
27/09:30pm 11.9 NW 5 6 1024.8 - 0.0 - - - - - - -
27/09:00pm 12.4 W 4 5 1024.6 - 0.0 - - - - - - -
27/08:30pm 13.0 W 4 5 1024.5 - 0.0 - - - - - - -
27/08:00pm 14.1 SW 5 7 1024.5 - 0.0 - - - - - - -
27/07:30pm 14.7 SW 6 11 1024.3 - 0.0 - - - - - - -
27/07:00pm 15.6 SSW 11 15 1023.9 - 0.0 - - - - - - -
27/06:30pm 15.9 SSW 12 16 1023.6 - 0.0 - - - - - - -
27/06:00pm 16.4 SSW 12 17 1023.4 - 0.0 - - - - - - -
27/05:30pm 16.6 SSW 13 19 1023.3 - 0.0 - - - - - - -
27/05:00pm 16.9 SSW 13 19 1023.2 - 0.0 - - - - - - -
27/04:30pm 17.2 S 12 23 1023.1 - 0.0 - - - - - - -
27/04:00pm 17.3 S 12 20 1023.3 - 0.0 - - - - - - -
27/03:30pm 17.3 S 13 20 1023.4 - 0.0 - - - - - - -
27/03:00pm 17.6 S 14 21 1023.4 - 0.0 - - - - - - -
27/02:30pm 17.7 S 14 24 1023.4 - 0.0 - - - - - - -
27/02:00pm 17.8 S 13 23 1023.3 - 0.0 - - - - - - -
27/01:30pm 17.5 S 13 22 1023.4 - 0.0 - - - - - - -
27/01:00pm 17.0 S 15 22 1023.3 - 0.0 - - - - - - -
27/12:30pm 18.2 SSW 12 19 1023.4 - 0.0 - - - - - - -
27/12:00pm 16.9 SSW 12 20 1023.4 - 0.0 - - - - - - -
27/11:30am 17.4 SW 7 13 1023.6 - 0.0 - - - - - - -
27/11:00am 16.6 W 10 16 1023.7 - 0.0 - - - - - - -
27/10:30am 16.6 WSW 9 13 1024.0 - 0.0 - - - - - - -
27/10:00am 15.6 SW 10 13 1024.2 - 0.0 - - - - - - -
27/09:30am 15.9 SW 11 20 1024.2 - 0.0 - - - - - - -
27/09:00am 14.9 WSW 9 16 1024.3 - 0.0 - - - - - - -
27/08:30am 14.4 WSW 10 14 1024.3 - 0.0 - - - - - - -
27/08:00am 14.2 W 8 15 1024.0 - 0.0 - - - - - - -
27/07:30am 14.2 WSW 7 13 1023.6 - 0.0 - - - - - - -
27/07:00am 13.4 W 6 11 1023.2 - 0.0 - - - - - - -
27/06:30am 13.2 W 4 7 1023.1 - 0.0 - - - - - - -
27/06:00am 12.8 W 5 9 1022.7 - 0.0 - - - - - - -
27/05:30am 13.1 W 4 8 1022.5 - 0.0 - - - - - - -
27/05:00am 13.1 W 5 8 1022.3 - 0.0 - - - - - - -
27/04:30am 13.5 WSW 6 9 1021.9 - 0.0 - - - - - - -
27/04:00am 13.6 SW 5 8 1021.9 - 0.0 - - - - - - -
27/03:30am 13.7 WSW 5 7 1021.7 - 0.0 - - - - - - -
27/03:00am 13.9 SW 7 10 1021.7 - 0.0 - - - - - - -
27/02:30am 13.9 SW 5 8 1021.9 - 0.0 - - - - - - -
27/02:00am 14.0 WSW 5 8 1022.0 - 0.0 - - - - - - -
27/01:30am 14.2 SW 6 9 1022.0 - 0.0 - - - - - - -
27/01:00am 14.3 SW 7 16 1022.2 - 0.0 - - - - - - -
27/12:30am 14.5 WSW 7 12 1022.2 - 0.0 - - - - - - -
27/12:00am 14.4 WSW 6 11 1022.3 - 0.0 - - - - - - -
 
Date/Time
EDT
Temp

°C
Wind Pressure Rain
since 9am
mm
Weather Cloud Vis
km
Sea
Height
m
Swell
Dir
 
Speed
knots
Gust
knots
hPa Trend Height
m
Period
s
Dir
26/11:30pm 14.7 WSW 5 9 1022.2 - 0.0 - - - - - - -
26/11:00pm 14.8 WSW 5 8 1022.2 - 0.0 - - - - - - -
26/10:30pm 14.9 WSW 5 10 1022.2 - 0.0 - - - - - - -
26/10:00pm 14.8 WSW 4 6 1022.1 - 0.0 - - - - - - -
26/09:30pm 15.0 WSW 6 10 1021.7 - 0.0 - - - - - - -
26/09:00pm 15.3 WSW 8 13 1021.2 - 0.0 - - - - - - -
26/08:30pm 15.5 SW 5 8 1021.0 - 0.0 - - - - - - -
26/08:00pm 15.6 SW 6 11 1020.7 - 0.0 - - - - - - -
26/07:30pm 15.9 SW 10 16 1020.3 - 0.0 - - - - - - -
26/07:00pm 16.5 SW 9 13 1019.8 - 0.0 - - - - - - -
26/06:30pm 17.9 SSW 12 18 1019.3 - 0.0 - - - - - - -
26/06:00pm 17.9 SSW 13 23 1018.9 - 0.0 - - - - - - -
26/05:30pm 17.5 SSW 9 15 1019.0 - 0.0 - - - - - - -
26/05:00pm 18.2 SSW 10 18 1018.9 - 0.0 - - - - - - -
26/04:30pm 17.8 SSW 11 17 1018.9 - 0.0 - - - - - - -
26/04:00pm 18.1 SSW 15 21 1018.7 - 0.0 - - - - - - -
26/03:30pm 19.3 SSW 11 21 1018.7 - 0.0 - - - - - - -
26/03:00pm 18.8 SSW 12 18 1018.6 - 0.0 - - - - - - -
26/02:30pm 19.2 SSW 13 21 1018.9 - 0.0 - - - - - - -
26/02:00pm 18.1 S 14 22 1018.8 - 0.0 - - - - - - -
26/01:30pm 18.4 SSW 12 19 1018.9 - 0.0 - - - - - - -
26/01:00pm 18.4 SSW 12 22 1019.0 - 0.0 - - - - - - -
26/12:30pm 17.9 S 13 19 1018.9 - 0.0 - - - - - - -
26/12:00pm 17.7 SSW 13 19 1018.7 - 0.0 - - - - - - -
26/11:30am 17.6 S 12 20 1018.8 - 0.0 - - - - - - -
26/11:00am 17.2 SSW 12 20 1019.0 - 0.0 - - - - - - -
26/10:30am 16.6 S 9 15 1019.2 - 0.0 - - - - - - -
26/10:00am 18.3 SSW 6 10 1019.3 - 0.0 - - - - - - -
26/09:30am 17.0 W 6 9 1019.7 - 0.0 - - - - - - -
26/09:00am 16.4 WSW 6 11 1019.8 - 0.0 - - - - - - -
26/08:30am 16.0 W 7 9 1019.7 - 0.0 - - - - - - -
26/08:00am 15.3 WSW 8 12 1019.7 - 0.0 - - - - - - -
26/07:30am 14.5 W 5 8 1019.5 - 0.0 - - - - - - -
26/07:00am 13.7 WNW 4 7 1019.4 - 0.0 - - - - - - -
26/06:30am 12.3 NW 5 6 1019.5 - 0.0 - - - - - - -
26/06:00am 11.3 NW 4 5 1019.1 - 0.0 - - - - - - -
26/05:30am 11.8 WNW 4 6 1019.0 - 0.0 - - - - - - -
26/05:00am 11.4 NNW 4 6 1018.9 - 0.0 - - - - - - -
26/04:30am 11.5 NNW 4 5 1018.7 - 0.0 - - - - - - -
26/04:00am 12.4 NW 4 5 1018.7 - 0.0 - - - - - - -
26/03:30am 12.0 NNW 4 5 1018.8 - 0.0 - - - - - - -
26/03:00am 12.7 WNW 3 4 1018.8 - 0.0 - - - - - - -
26/02:30am 12.5 NNW 3 5 1019.3 - 0.0 - - - - - - -
26/02:00am 12.1 N 4 6 1019.6 - 0.0 - - - - - - -
26/01:30am 12.2 NW 3 5 1019.7 - 0.0 - - - - - - -
26/01:00am 12.4 NNW 3 4 1020.1 - 0.0 - - - - - - -
26/12:30am 13.4 WNW 4 6 1020.2 - 0.0 - - - - - - -
26/12:00am 13.9 NW 4 6 1020.4 - 0.0 - - - - - - -
 
Date/Time
EDT
Temp

°C
Wind Pressure Rain
since 9am
mm
Weather Cloud Vis
km
Sea
Height
m
Swell
Dir
 
Speed
knots
Gust
knots
hPa Trend Height
m
Period
s
Dir
25/11:30pm 14.7 WNW 4 7 1020.6 - 0.0 - - - - - - -
25/11:00pm 14.8 WNW 4 6 1020.5 - 0.0 - - - - - - -
25/10:30pm 14.8 WNW 4 7 1020.5 - 0.0 - - - - - - -
25/10:00pm 14.8 NW 4 5 1020.4 - 0.0 - - - - - - -
25/09:30pm 14.7 NW 4 5 1020.1 - 0.0 - - - - - - -
25/09:00pm 14.8 NW 3 5 1019.5 - 0.0 - - - - - - -
25/08:30pm 14.8 W 4 8 1019.1 - 0.0 - - - - - - -
25/08:00pm 15.2 WSW 6 13 1018.6 - 0.0 - - - - - - -
25/07:30pm 15.8 SW 12 19 1017.8 - 0.0 - - - - - - -
25/07:00pm 16.5 SW 12 17 1017.3 - 0.0 - - - - - - -
25/06:30pm 16.9 SSW 11 16 1017.1 - 0.0 - - - - - - -
25/06:00pm 17.3 SSW 13 21 1016.7 - 0.0 - - - - - - -
25/05:30pm 17.9 SSW 15 25 1016.4 - 0.0 - - - - - - -
25/05:00pm 17.8 SW 15 25 1016.4 - 0.0 - - - - - - -
25/04:46pm 18.0 SW 15 27 1016.3 - 0.0 - - - - - - -
25/04:30pm 18.9 SSW 15 23 1016.2 - 0.0 - - - - - - -
25/04:15pm 18.4 SSW 15 25 1016.3 - 0.0 - - - - - - -
25/04:00pm 19.1 SW 14 23 1016.2 - 0.0 - - - - - - -
25/03:49pm 19.1 SSW 15 25 1016.1 - 0.0 - - - - - - -
25/03:30pm 19.6 SW 13 22 1015.8 - 0.0 - - - - - - -
25/03:00pm 19.9 SW 13 22 1015.6 - 0.0 - - - - - - -
25/02:30pm 19.6 SW 13 21 1015.7 - 0.0 - - - - - - -
25/02:00pm 19.2 WSW 10 17 1015.9 - 0.0 - - - - - - -
25/01:30pm 18.7 WSW 12 19 1015.8 - 0.0 - - - - - - -
25/01:00pm 19.1 WSW 13 21 1015.7 - 0.0 - - - - - - -
25/12:48pm 19.0 SW 15 31 1015.8 - 0.0 - - - - - - -
25/12:30pm 18.6 SW 11 16 1016.0 - 0.0 - - - - - - -
25/12:00pm 18.7 SW 13 23 1015.6 - 0.0 - - - - - - -
25/11:43am 18.5 WSW 15 26 1015.5 - 0.0 - - - - - - -
25/11:30am 18.1 SW 14 23 1015.5 - 0.0 - - - - - - -
25/11:00am 18.4 SW 15 27 1015.2 - 0.0 - - - - - - -
25/10:53am 17.7 WSW 15 26 1015.3 - 0.0 - - - - - - -
25/10:30am 17.6 WSW 12 17 1015.0 - 0.0 - - - - - - -
25/10:14am 17.3 SW 15 25 1014.7 - 0.0 - - - - - - -
25/10:00am 17.2 W 12 26 1014.6 - 0.0 - - - - - - -
25/09:30am 16.6 SW 12 21 1014.3 - 0.0 - - - - - - -
25/09:00am 15.6 WSW 14 24 1014.2 - 5.8 - - - - - - -

Other Formats:

Comma delimited format used in spreadsheet applications
http://www.bom.gov.au/fwo/IDV60701/IDV60701.94935.axf

JavaScript Object Notation format (JSON) in row-major order
http://www.bom.gov.au/fwo/IDV60701/IDV60701.94935.json